createdAt,value
2018-07-19T00:00:55.134Z,1008.55
2018-07-19T00:01:55.195Z,1008.52
2018-07-19T00:02:55.255Z,1008.49
2018-07-19T00:03:55.314Z,1008.58
2018-07-19T00:04:55.376Z,1008.56
2018-07-19T00:05:55.436Z,1008.60
2018-07-19T00:06:55.496Z,1008.66
2018-07-19T00:07:55.577Z,1008.61
2018-07-19T00:08:55.616Z,1008.60
2018-07-19T00:09:55.675Z,1008.62
2018-07-19T00:10:55.736Z,1008.65
2018-07-19T00:11:55.945Z,1008.65
2018-07-19T00:12:55.854Z,1008.65
2018-07-19T00:13:55.920Z,1008.67
2018-07-19T00:14:55.978Z,1008.60
2018-07-19T00:15:56.036Z,1008.63
2018-07-19T00:16:56.095Z,1008.57
2018-07-19T00:17:56.155Z,1008.60
2018-07-19T00:18:56.261Z,1008.63
2018-07-19T00:19:56.275Z,1008.64
2018-07-19T00:20:56.335Z,1008.66
2018-07-19T00:21:56.394Z,1008.68
2018-07-19T00:22:56.454Z,1008.71
2018-07-19T00:23:56.514Z,1008.69
2018-07-19T00:24:56.575Z,1008.68
2018-07-19T00:25:56.634Z,1008.69
2018-07-19T00:26:56.694Z,1008.66
2018-07-19T00:27:56.752Z,1008.68
2018-07-19T00:28:56.816Z,1008.67
2018-07-19T00:29:56.873Z,1008.68
2018-07-19T00:30:56.934Z,1008.65
2018-07-19T00:31:56.992Z,1008.65
2018-07-19T00:32:57.052Z,1008.69
2018-07-19T00:33:57.136Z,1008.59
2018-07-19T00:34:57.172Z,1008.64
2018-07-19T00:35:57.233Z,1008.66
2018-07-19T00:36:57.291Z,1008.63
2018-07-19T00:37:57.351Z,1008.64
2018-07-19T00:38:57.411Z,1008.53
2018-07-19T00:39:57.471Z,1008.60
2018-07-19T00:40:57.530Z,1008.60
2018-07-19T00:41:57.590Z,1008.57
2018-07-19T00:42:57.650Z,1008.55
2018-07-19T00:43:58.109Z,1008.58
2018-07-19T00:44:57.769Z,1008.59
2018-07-19T00:45:57.830Z,1008.58
2018-07-19T00:46:57.890Z,1008.58
2018-07-19T00:47:57.952Z,1008.62
2018-07-19T00:48:58.008Z,1008.60
2018-07-19T00:49:58.069Z,1008.60
2018-07-19T00:50:58.129Z,1008.65
2018-07-19T00:51:58.189Z,1008.61
2018-07-19T00:52:58.248Z,1008.63
2018-07-19T00:53:58.306Z,1008.65
2018-07-19T00:54:58.368Z,1008.67
2018-07-19T00:55:58.426Z,1008.65
2018-07-19T00:56:58.486Z,1008.64
2018-07-19T00:57:58.545Z,1008.62
2018-07-19T00:58:58.605Z,1008.67
2018-07-19T00:59:58.664Z,1008.68
2018-07-19T01:00:58.724Z,1008.66
2018-07-19T01:01:58.788Z,1008.70
2018-07-19T01:02:58.845Z,1008.68
2018-07-19T01:03:58.906Z,1008.69
2018-07-19T01:04:58.962Z,1008.68
2018-07-19T01:05:59.021Z,1008.69
2018-07-19T01:06:59.082Z,1008.65
2018-07-19T01:07:59.142Z,1008.65
2018-07-19T01:08:59.201Z,1008.67
2018-07-19T01:09:59.260Z,1008.67
2018-07-19T01:10:59.320Z,1008.70
2018-07-19T01:11:59.379Z,1008.72
2018-07-19T01:12:59.440Z,1008.68
2018-07-19T01:13:59.498Z,1008.70
2018-07-19T01:14:59.558Z,1008.66
2018-07-19T01:15:59.617Z,1008.69
2018-07-19T01:16:59.677Z,1008.69
2018-07-19T01:17:59.736Z,1008.70
2018-07-19T01:18:59.796Z,1008.68
2018-07-19T01:19:59.855Z,1008.68
2018-07-19T01:20:59.914Z,1008.68
2018-07-19T01:21:59.977Z,1008.72
2018-07-19T01:23:00.034Z,1008.70
2018-07-19T01:24:00.093Z,1008.70
2018-07-19T01:25:00.152Z,1008.71
2018-07-19T01:26:00.219Z,1008.72
2018-07-19T01:27:00.275Z,1008.69
2018-07-19T01:28:00.481Z,1008.66
2018-07-19T01:29:00.392Z,1008.68
2018-07-19T01:30:00.450Z,1008.73
2018-07-19T01:31:00.511Z,1008.71
2018-07-19T01:32:00.568Z,1008.64
2018-07-19T01:33:00.630Z,1008.65
2018-07-19T01:34:00.688Z,1008.66
2018-07-19T01:35:00.746Z,1008.66
2018-07-19T01:36:00.807Z,1008.62
2018-07-19T01:37:00.865Z,1008.64
2018-07-19T01:38:00.925Z,1008.63
2018-07-19T01:39:00.984Z,1008.65
2018-07-19T01:40:01.044Z,1008.65
2018-07-19T01:41:01.104Z,1008.66
2018-07-19T01:42:01.162Z,1008.72
2018-07-19T01:43:01.224Z,1008.66
2018-07-19T01:44:01.281Z,1008.66
2018-07-19T01:45:01.344Z,1008.71
2018-07-19T01:46:01.402Z,1008.70
2018-07-19T01:47:01.465Z,1008.70
2018-07-19T01:48:01.518Z,1008.67
2018-07-19T01:49:01.580Z,1008.66
2018-07-19T01:50:01.636Z,1008.61
2018-07-19T01:51:01.700Z,1008.64
2018-07-19T01:52:01.757Z,1008.66
2018-07-19T01:53:01.816Z,1008.64
2018-07-19T01:54:01.880Z,1008.63
2018-07-19T01:55:01.934Z,1008.62
2018-07-19T01:56:01.993Z,1008.59
2018-07-19T01:57:02.053Z,1008.64
2018-07-19T01:58:02.114Z,1008.65
2018-07-19T01:59:02.176Z,1008.64
2018-07-19T02:00:02.241Z,1008.62
2018-07-19T02:01:02.289Z,1008.61
2018-07-19T02:02:02.350Z,1008.63
2018-07-19T02:03:02.409Z,1008.64
2018-07-19T02:04:02.467Z,1008.66
2018-07-19T02:05:02.526Z,1008.65
2018-07-19T02:06:02.586Z,1008.64
2018-07-19T02:07:02.645Z,1008.62
2018-07-19T02:08:02.703Z,1008.64
2018-07-19T02:09:02.764Z,1008.60
2018-07-19T02:10:02.823Z,1008.61
2018-07-19T02:11:02.882Z,1008.60
2018-07-19T02:12:02.943Z,1008.59
2018-07-19T02:13:03.000Z,1008.61
2018-07-19T02:14:03.059Z,1008.63
2018-07-19T02:15:03.119Z,1008.60
2018-07-19T02:16:03.181Z,1008.60
2018-07-19T02:17:03.238Z,1008.62
2018-07-19T02:18:03.297Z,1008.62
2018-07-19T02:19:03.359Z,1008.61
2018-07-19T02:20:03.415Z,1008.59
2018-07-19T02:21:03.474Z,1008.62
2018-07-19T02:22:03.535Z,1008.61
2018-07-19T02:23:03.592Z,1008.62
2018-07-19T02:24:03.652Z,1008.61
2018-07-19T02:25:03.710Z,1008.60
2018-07-19T02:26:03.770Z,1008.65
2018-07-19T02:27:03.830Z,1008.61
2018-07-19T02:28:03.889Z,1008.64
2018-07-19T02:29:03.948Z,1008.68
2018-07-19T02:30:04.008Z,1008.66
2018-07-19T02:31:04.068Z,1008.65
2018-07-19T02:32:04.126Z,1008.66
2018-07-19T02:33:04.184Z,1008.69
2018-07-19T02:34:04.244Z,1008.67
2018-07-19T02:35:04.304Z,1008.68
2018-07-19T02:36:04.362Z,1008.67
2018-07-19T02:37:04.420Z,1008.67
2018-07-19T02:38:04.481Z,1008.66
2018-07-19T02:39:04.540Z,1008.67
2018-07-19T02:40:04.598Z,1008.65
2018-07-19T02:41:04.657Z,1008.67
2018-07-19T02:42:04.716Z,1008.73
2018-07-19T02:43:04.775Z,1008.72
2018-07-19T02:44:04.836Z,1008.71
2018-07-19T02:45:04.894Z,1008.70
2018-07-19T02:46:04.953Z,1008.69
2018-07-19T02:47:05.012Z,1008.74
2018-07-19T02:48:05.071Z,1008.70
2018-07-19T02:49:05.129Z,1008.72
2018-07-19T02:50:05.189Z,1008.73
2018-07-19T02:51:05.248Z,1008.69
2018-07-19T02:52:05.307Z,1008.67
2018-07-19T02:53:05.367Z,1008.67
2018-07-19T02:54:05.425Z,1008.69
2018-07-19T02:55:05.485Z,1008.69
2018-07-19T02:56:05.544Z,1008.68
2018-07-19T02:57:05.604Z,1008.69
2018-07-19T02:58:05.663Z,1008.66
2018-07-19T02:59:05.723Z,1008.68
2018-07-19T03:00:05.781Z,1008.69
2018-07-19T03:01:05.839Z,1008.66
2018-07-19T03:02:05.911Z,1008.70
2018-07-19T03:03:05.957Z,1008.68
2018-07-19T03:04:06.015Z,1008.67
2018-07-19T03:05:06.084Z,1008.70
2018-07-19T03:06:06.134Z,1008.66
2018-07-19T03:07:06.193Z,1008.68
2018-07-19T03:08:06.252Z,1008.67
2018-07-19T03:09:06.312Z,1008.70
2018-07-19T03:10:06.370Z,1008.67
2018-07-19T03:11:06.430Z,1008.67
2018-07-19T03:12:06.487Z,1008.68
2018-07-19T03:13:06.547Z,1008.63
2018-07-19T03:14:06.606Z,1008.65
2018-07-19T03:15:06.665Z,1008.66
2018-07-19T03:16:06.723Z,1008.64
2018-07-19T03:17:06.783Z,1008.67
2018-07-19T03:18:06.874Z,1008.66
2018-07-19T03:19:06.901Z,1008.67
2018-07-19T03:20:06.959Z,1008.68
2018-07-19T03:21:07.018Z,1008.71
2018-07-19T03:22:07.079Z,1008.69
2018-07-19T03:23:07.137Z,1008.67
2018-07-19T03:24:07.195Z,1008.68
2018-07-19T03:25:07.254Z,1008.71
2018-07-19T03:26:07.465Z,1008.71
2018-07-19T03:27:07.373Z,1008.72
2018-07-19T03:28:07.431Z,1008.72
2018-07-19T03:29:07.490Z,1008.71
2018-07-19T03:30:07.550Z,1008.68
2018-07-19T03:31:07.687Z,1008.64
2018-07-19T03:32:07.669Z,1008.64
2018-07-19T03:33:07.727Z,1008.63
2018-07-19T03:34:07.786Z,1008.61
2018-07-19T03:35:07.845Z,1008.64
2018-07-19T03:36:07.903Z,1008.62
2018-07-19T03:37:07.962Z,1008.64
2018-07-19T03:38:08.023Z,1008.66
2018-07-19T03:39:08.083Z,1008.64
2018-07-19T03:40:08.179Z,1008.62
2018-07-19T03:41:08.197Z,1008.66
2018-07-19T03:42:08.257Z,1008.65
2018-07-19T03:43:08.320Z,1008.66
2018-07-19T03:44:08.377Z,1008.66
2018-07-19T03:45:08.433Z,1008.66
2018-07-19T03:46:08.493Z,1008.67
2018-07-19T03:47:08.552Z,1008.65
2018-07-19T03:48:08.610Z,1008.62
2018-07-19T03:49:08.669Z,1008.63
2018-07-19T03:50:08.729Z,1008.63
2018-07-19T03:51:08.788Z,1008.65
2018-07-19T03:52:08.846Z,1008.66
2018-07-19T03:53:08.906Z,1008.64
2018-07-19T03:54:08.966Z,1008.68
2018-07-19T03:55:09.028Z,1008.70
2018-07-19T03:56:09.082Z,1008.71
2018-07-19T03:57:09.141Z,1008.70
2018-07-19T03:58:09.200Z,1008.68
2018-07-19T03:59:09.260Z,1008.73
2018-07-19T04:00:09.318Z,1008.69
2018-07-19T04:01:09.376Z,1008.71
2018-07-19T04:02:09.436Z,1008.74
2018-07-19T04:03:09.496Z,1008.71
2018-07-19T04:04:09.554Z,1008.72
2018-07-19T04:05:09.612Z,1008.71
2018-07-19T04:06:09.923Z,1008.72
2018-07-19T04:07:09.731Z,1008.73
2018-07-19T04:08:09.789Z,1008.72
2018-07-19T04:09:09.851Z,1008.73
2018-07-19T04:10:09.907Z,1008.74
2018-07-19T04:11:09.966Z,1008.72
2018-07-19T04:12:10.024Z,1008.74
2018-07-19T04:13:10.083Z,1008.77
2018-07-19T04:14:10.142Z,1008.75
2018-07-19T04:15:10.204Z,1008.76
2018-07-19T04:16:10.260Z,1008.77
2018-07-19T04:17:10.370Z,1008.79
2018-07-19T04:18:10.381Z,1008.78
2018-07-19T04:19:10.437Z,1008.79
2018-07-19T04:20:10.495Z,1008.80
2018-07-19T04:21:10.705Z,1008.84
2018-07-19T04:22:10.613Z,1008.81
2018-07-19T04:23:10.674Z,1008.85
2018-07-19T04:24:10.731Z,1008.85
2018-07-19T04:25:10.809Z,1008.82
2018-07-19T04:26:10.849Z,1008.80
2018-07-19T04:27:10.909Z,1008.82
2018-07-19T04:28:10.966Z,1008.81
2018-07-19T04:29:11.027Z,1008.83
2018-07-19T04:30:11.089Z,1008.82
2018-07-19T04:31:11.145Z,1008.81
2018-07-19T04:32:11.208Z,1008.85
2018-07-19T04:33:11.261Z,1008.81
2018-07-19T04:34:11.321Z,1008.83
2018-07-19T04:35:11.383Z,1008.81
2018-07-19T04:36:11.438Z,1008.82
2018-07-19T04:37:11.498Z,1008.87
2018-07-19T04:38:11.597Z,1008.85
2018-07-19T04:39:11.618Z,1008.82
2018-07-19T04:40:11.674Z,1008.83
2018-07-19T04:41:11.733Z,1008.84
2018-07-19T04:42:11.792Z,1008.83
2018-07-19T04:43:11.855Z,1008.86
2018-07-19T04:44:11.911Z,1008.85
2018-07-19T04:45:11.969Z,1008.88
2018-07-19T04:46:12.028Z,1008.87
2018-07-19T04:47:12.088Z,1008.91
2018-07-19T04:48:12.212Z,1008.90
2018-07-19T04:49:12.205Z,1008.92
2018-07-19T04:50:12.265Z,1008.90
2018-07-19T04:51:12.326Z,1008.93
2018-07-19T04:52:12.383Z,1008.94
2018-07-19T04:53:12.441Z,1008.93
2018-07-19T04:54:12.502Z,1008.95
2018-07-19T04:55:12.562Z,1008.96
2018-07-19T04:56:12.619Z,1008.94
2018-07-19T04:57:12.678Z,1008.92
2018-07-19T04:58:12.738Z,1008.95
2018-07-19T04:59:12.797Z,1008.93
2018-07-19T05:00:12.857Z,1008.94
2018-07-19T05:01:12.914Z,1008.92
2018-07-19T05:02:12.975Z,1008.93
2018-07-19T05:03:13.033Z,1008.92
2018-07-19T05:04:13.096Z,1008.93
2018-07-19T05:05:13.151Z,1008.91
2018-07-19T05:06:13.211Z,1008.94
2018-07-19T05:07:13.270Z,1008.96
2018-07-19T05:08:13.328Z,1008.96
2018-07-19T05:09:13.388Z,1008.93
2018-07-19T05:10:13.451Z,1008.99
2018-07-19T05:11:13.507Z,1008.91
2018-07-19T05:12:13.568Z,1008.89
2018-07-19T05:13:13.632Z,1008.88
2018-07-19T05:14:13.694Z,1008.88
2018-07-19T05:15:13.745Z,1008.88
2018-07-19T05:16:13.804Z,1008.91
2018-07-19T05:17:13.864Z,1008.92
2018-07-19T05:18:13.923Z,1008.91
2018-07-19T05:19:13.982Z,1008.92
2018-07-19T05:20:14.041Z,1008.89
2018-07-19T05:21:14.101Z,1008.90
2018-07-19T05:22:14.733Z,1008.92
2018-07-19T05:23:14.332Z,1008.91
2018-07-19T05:24:14.278Z,1008.90
2018-07-19T05:25:14.338Z,1008.92
2018-07-19T05:26:14.396Z,1008.89
2018-07-19T05:27:14.456Z,1008.92
2018-07-19T05:28:14.515Z,1008.96
2018-07-19T05:29:14.577Z,1008.96
2018-07-19T05:30:14.636Z,1008.99
2018-07-19T05:31:14.695Z,1008.98
2018-07-19T05:32:14.753Z,1008.97
2018-07-19T05:33:14.813Z,1008.92
2018-07-19T05:34:14.874Z,1008.93
2018-07-19T05:35:14.934Z,1008.95
2018-07-19T05:36:14.993Z,1008.95
2018-07-19T05:37:15.051Z,1008.96
2018-07-19T05:38:15.111Z,1008.96
2018-07-19T05:39:15.171Z,1008.96
2018-07-19T05:40:15.230Z,1008.98
2018-07-19T05:41:15.291Z,1008.95
2018-07-19T05:42:15.367Z,1008.97
2018-07-19T05:43:15.409Z,1008.93
2018-07-19T05:44:15.469Z,1008.93
2018-07-19T05:45:15.528Z,1008.94
2018-07-19T05:46:15.588Z,1008.95
2018-07-19T05:47:15.648Z,1008.90
2018-07-19T05:48:15.707Z,1008.91
2018-07-19T05:49:15.768Z,1008.89
2018-07-19T05:50:15.827Z,1008.90
2018-07-19T05:51:15.894Z,1008.88
2018-07-19T05:52:15.947Z,1008.82
2018-07-19T05:53:16.010Z,1008.84
2018-07-19T05:54:16.119Z,1008.83
2018-07-19T05:55:16.126Z,1008.84
2018-07-19T05:56:16.186Z,1008.82
2018-07-19T05:57:16.247Z,1008.85
2018-07-19T05:58:16.347Z,1008.82
2018-07-19T05:59:16.368Z,1008.82
2018-07-19T06:00:16.432Z,1008.85
2018-07-19T06:01:16.486Z,1008.84
2018-07-19T06:02:17.303Z,1008.87
2018-07-19T06:03:16.607Z,1008.86
2018-07-19T06:04:16.665Z,1008.88
2018-07-19T06:05:16.727Z,1008.89
2018-07-19T06:06:16.790Z,1008.88
2018-07-19T06:07:17.103Z,1008.92
2018-07-19T06:08:16.907Z,1008.89
2018-07-19T06:09:16.967Z,1008.94
2018-07-19T06:10:17.028Z,1008.93
2018-07-19T06:11:17.089Z,1008.91
2018-07-19T06:12:17.147Z,1008.88
2018-07-19T06:13:17.212Z,1008.83
2018-07-19T06:14:17.268Z,1008.86
2018-07-19T06:15:17.330Z,1008.84
2018-07-19T06:16:17.390Z,1008.86
2018-07-19T06:17:17.450Z,1008.86
2018-07-19T06:18:17.511Z,1008.84
2018-07-19T06:19:17.570Z,1008.85
2018-07-19T06:20:17.632Z,1008.81
2018-07-19T06:21:17.692Z,1008.84
2018-07-19T06:22:17.753Z,1008.83
2018-07-19T06:23:17.813Z,1008.87
2018-07-19T06:24:17.874Z,1008.88
2018-07-19T06:25:17.934Z,1008.90
2018-07-19T06:26:17.995Z,1008.88
2018-07-19T06:27:18.306Z,1008.91
2018-07-19T06:28:18.171Z,1008.92
2018-07-19T06:29:18.176Z,1008.90
2018-07-19T06:30:18.237Z,1008.91
2018-07-19T06:31:18.298Z,1008.92
2018-07-19T06:32:18.361Z,1008.97
2018-07-19T06:33:18.418Z,1008.92
2018-07-19T06:34:18.482Z,1008.93
2018-07-19T06:35:18.541Z,1008.94
2018-07-19T06:36:18.601Z,1008.94
2018-07-19T06:37:18.662Z,1008.94
2018-07-19T06:38:18.723Z,1008.97
2018-07-19T06:39:18.784Z,1008.93
2018-07-19T06:40:18.844Z,1008.94
2018-07-19T06:41:18.937Z,1008.94
2018-07-19T06:42:18.966Z,1008.96
2018-07-19T06:43:19.027Z,1008.94
2018-07-19T06:44:19.087Z,1009.00
2018-07-19T06:45:19.150Z,1008.94
2018-07-19T06:46:19.210Z,1008.94
2018-07-19T06:47:19.271Z,1008.93
2018-07-19T06:48:19.331Z,1008.95
2018-07-19T06:49:19.398Z,1009.01
2018-07-19T06:50:19.456Z,1008.93
2018-07-19T06:51:19.515Z,1008.99
2018-07-19T06:52:19.574Z,1008.98
2018-07-19T06:53:19.639Z,1008.98
2018-07-19T06:54:19.699Z,1008.97
2018-07-19T06:55:19.759Z,1008.96
2018-07-19T06:56:19.819Z,1009.00
2018-07-19T06:57:19.882Z,1008.98
2018-07-19T06:58:19.944Z,1008.96
2018-07-19T06:59:20.004Z,1008.99
2018-07-19T07:00:20.067Z,1008.97
2018-07-19T07:01:20.127Z,1008.96
2018-07-19T07:02:20.188Z,1008.96
2018-07-19T07:03:20.250Z,1008.96
2018-07-19T07:04:20.312Z,1008.95
2018-07-19T07:05:20.372Z,1008.91
2018-07-19T07:06:20.434Z,1008.93
2018-07-19T07:07:20.746Z,1008.92
2018-07-19T07:08:20.558Z,1008.91
2018-07-19T07:09:20.619Z,1008.97
2018-07-19T07:10:20.680Z,1009.02
2018-07-19T07:11:20.742Z,1009.00
2018-07-19T07:12:20.803Z,1008.98
2018-07-19T07:13:20.864Z,1009.00
2018-07-19T07:14:20.926Z,1008.99
2018-07-19T07:15:20.990Z,1008.98
2018-07-19T07:16:21.050Z,1008.99
2018-07-19T07:17:21.111Z,1008.99
2018-07-19T07:18:21.178Z,1008.97
2018-07-19T07:19:21.236Z,1008.94
2018-07-19T07:20:21.296Z,1008.99
2018-07-19T07:21:21.455Z,1008.97
2018-07-19T07:22:21.420Z,1008.98
2018-07-19T07:23:21.482Z,1008.99
2018-07-19T07:24:21.543Z,1008.98
2018-07-19T07:25:21.615Z,1008.98
2018-07-19T07:26:21.669Z,1008.96
2018-07-19T07:27:21.757Z,1008.99
2018-07-19T07:28:21.834Z,1009.02
2018-07-19T07:29:21.853Z,1009.01
2018-07-19T07:30:21.918Z,1009.01
2018-07-19T07:31:21.981Z,1008.97
2018-07-19T07:32:22.040Z,1008.98
2018-07-19T07:33:22.123Z,1008.98
2018-07-19T07:34:22.164Z,1008.96
2018-07-19T07:35:22.226Z,1008.98
2018-07-19T07:36:22.288Z,1008.95
2018-07-19T07:37:22.351Z,1008.95
2018-07-19T07:38:22.414Z,1008.95
2018-07-19T07:39:22.476Z,1008.97
2018-07-19T07:40:22.538Z,1008.91
2018-07-19T07:41:22.601Z,1008.94
2018-07-19T07:42:22.663Z,1008.91
2018-07-19T07:43:22.727Z,1008.90
2018-07-19T07:44:22.787Z,1008.91
2018-07-19T07:45:22.851Z,1008.87
2018-07-19T07:46:22.913Z,1008.91
2018-07-19T07:47:23.987Z,1008.91
2018-07-19T07:48:23.040Z,1008.88
2018-07-19T07:49:23.100Z,1008.89
2018-07-19T07:50:23.164Z,1008.87
2018-07-19T07:51:23.226Z,1008.85
2018-07-19T07:52:23.288Z,1008.88
2018-07-19T07:53:23.352Z,1008.90
2018-07-19T07:54:23.414Z,1008.87
2018-07-19T07:55:23.476Z,1008.87
2018-07-19T07:56:23.538Z,1008.89
2018-07-19T07:57:23.603Z,1008.90
2018-07-19T07:58:23.665Z,1008.86
2018-07-19T07:59:23.749Z,1008.86
2018-07-19T08:00:23.838Z,1008.86
2018-07-19T08:01:23.853Z,1008.84
2018-07-19T08:02:23.918Z,1008.85
2018-07-19T08:03:23.980Z,1008.86
2018-07-19T08:04:24.042Z,1008.83
2018-07-19T08:05:24.104Z,1008.83
2018-07-19T08:06:24.170Z,1008.80
2018-07-19T08:07:24.231Z,1008.83
2018-07-19T08:08:24.294Z,1008.81
2018-07-19T08:09:24.357Z,1008.78
2018-07-19T08:10:24.420Z,1008.73
2018-07-19T08:11:24.483Z,1008.75
2018-07-19T08:12:25.183Z,1008.72
2018-07-19T08:13:24.609Z,1008.71
2018-07-19T08:14:24.675Z,1008.72
2018-07-19T08:15:24.738Z,1008.75
2018-07-19T08:16:24.800Z,1008.73
2018-07-19T08:17:24.864Z,1008.73
2018-07-19T08:18:24.926Z,1008.69
2018-07-19T08:19:25.023Z,1008.68
2018-07-19T08:20:25.056Z,1008.67
2018-07-19T08:21:25.117Z,1008.66
2018-07-19T08:22:25.182Z,1008.67
2018-07-19T08:23:25.245Z,1008.68
2018-07-19T08:24:25.308Z,1008.70
2018-07-19T08:25:25.371Z,1008.69
2018-07-19T08:26:25.435Z,1008.69
2018-07-19T08:27:25.503Z,1008.67
2018-07-19T08:28:25.564Z,1008.66
2018-07-19T08:29:25.642Z,1008.63
2018-07-19T08:30:25.691Z,1008.63
2018-07-19T08:31:25.755Z,1008.67
2018-07-19T08:32:25.869Z,1008.64
2018-07-19T08:34:25.947Z,1008.64
2018-07-19T08:35:26.016Z,1008.62
2018-07-19T08:36:26.074Z,1008.63
2018-07-19T08:37:26.139Z,1008.63
2018-07-19T08:38:26.203Z,1008.63
2018-07-19T08:39:26.268Z,1008.59
2018-07-19T08:40:26.332Z,1008.57
2018-07-19T08:41:26.396Z,1008.58
2018-07-19T08:42:26.460Z,1008.53
2018-07-19T08:43:26.525Z,1008.54
2018-07-19T08:44:26.590Z,1008.51
2018-07-19T08:45:26.658Z,1008.52
2018-07-19T08:46:26.719Z,1008.50
2018-07-19T08:47:27.339Z,1008.50
2018-07-19T08:48:26.846Z,1008.49
2018-07-19T08:49:26.912Z,1008.51
2018-07-19T08:50:26.976Z,1008.47
2018-07-19T08:51:27.041Z,1008.51
2018-07-19T08:52:27.105Z,1008.47
2018-07-19T08:53:27.170Z,1008.48
2018-07-19T08:54:27.236Z,1008.45
2018-07-19T08:55:27.301Z,1008.48
2018-07-19T08:56:27.419Z,1008.43
2018-07-19T08:57:27.431Z,1008.45
2018-07-19T08:58:27.493Z,1008.42
2018-07-19T08:59:27.560Z,1008.40
2018-07-19T09:00:27.623Z,1008.40
2018-07-19T09:01:27.688Z,1008.38
2018-07-19T09:02:27.754Z,1008.42
2018-07-19T09:03:27.818Z,1008.39
2018-07-19T09:04:27.885Z,1008.44
2018-07-19T09:05:27.948Z,1008.38
2018-07-19T09:06:28.013Z,1008.44
2018-07-19T09:07:28.078Z,1008.39
2018-07-19T09:08:28.143Z,1008.37
2018-07-19T09:09:28.210Z,1008.39
2018-07-19T09:10:28.272Z,1008.37
2018-07-19T09:11:28.339Z,1008.33
2018-07-19T09:12:28.402Z,1008.38
2018-07-19T09:13:28.468Z,1008.38
2018-07-19T09:14:28.539Z,1008.36
2018-07-19T09:15:28.598Z,1008.36
2018-07-19T09:16:28.663Z,1008.36
2018-07-19T09:17:28.728Z,1008.35
2018-07-19T09:18:28.793Z,1008.38
2018-07-19T09:19:28.917Z,1008.37
2018-07-19T09:20:28.927Z,1008.30
2018-07-19T09:21:28.989Z,1008.29
2018-07-19T09:22:29.056Z,1008.29
2018-07-19T09:23:29.122Z,1008.35
2018-07-19T09:24:29.185Z,1008.30
2018-07-19T09:25:29.261Z,1008.30
2018-07-19T09:26:29.348Z,1008.32
2018-07-19T09:27:29.383Z,1008.32
2018-07-19T09:28:29.447Z,1008.33
2018-07-19T09:29:29.514Z,1008.35
2018-07-19T09:30:32.615Z,1008.30
2018-07-19T09:31:31.064Z,1008.30
2018-07-19T09:32:30.268Z,1008.33
2018-07-19T09:33:29.781Z,1008.32
2018-07-19T09:34:30.471Z,1008.29
2018-07-19T09:35:29.915Z,1008.24
2018-07-19T09:36:29.978Z,1008.25
2018-07-19T09:37:30.042Z,1008.27
2018-07-19T09:38:30.172Z,1008.25
2018-07-19T09:39:30.174Z,1008.24
2018-07-19T09:40:30.239Z,1008.25
2018-07-19T09:41:30.305Z,1008.21
2018-07-19T09:42:30.372Z,1008.18
2018-07-19T09:43:30.442Z,1008.20
2018-07-19T09:44:30.503Z,1008.20
2018-07-19T09:45:30.569Z,1008.19
2018-07-19T09:46:30.635Z,1008.21
2018-07-19T09:47:30.703Z,1008.21
2018-07-19T09:48:30.768Z,1008.17
2018-07-19T09:49:30.835Z,1008.18
2018-07-19T09:50:30.899Z,1008.19
2018-07-19T09:51:30.966Z,1008.18
2018-07-19T09:52:31.031Z,1008.20
2018-07-19T09:53:31.098Z,1008.18
2018-07-19T09:54:31.165Z,1008.18
2018-07-19T09:55:31.231Z,1008.20
2018-07-19T09:56:31.297Z,1008.19
2018-07-19T09:57:31.368Z,1008.20
2018-07-19T09:58:31.431Z,1008.23
2018-07-19T09:59:31.541Z,1008.32
2018-07-19T10:00:31.563Z,1008.29
2018-07-19T10:01:31.630Z,1008.27
2018-07-19T10:02:31.699Z,1008.21
2018-07-19T10:03:31.765Z,1008.24
2018-07-19T10:04:31.830Z,1008.19
2018-07-19T10:05:31.898Z,1008.24
2018-07-19T10:06:31.966Z,1008.21
2018-07-19T10:07:32.033Z,1008.22
2018-07-19T10:08:32.100Z,1008.22
2018-07-19T10:09:32.165Z,1008.19
2018-07-19T10:10:32.237Z,1008.22
2018-07-19T10:11:32.312Z,1008.22
2018-07-19T10:12:32.368Z,1008.20
2018-07-19T10:13:32.482Z,1008.18
2018-07-19T10:14:32.505Z,1008.24
2018-07-19T10:15:32.640Z,1008.54
2018-07-19T10:16:32.646Z,1008.71
2018-07-19T10:17:32.711Z,1008.77
2018-07-19T10:18:32.778Z,1008.81
2018-07-19T10:19:32.847Z,1008.81
2018-07-19T10:20:32.920Z,1008.79
2018-07-19T10:21:32.985Z,1008.80
2018-07-19T10:22:33.056Z,1008.81
2018-07-19T10:23:33.138Z,1008.83
2018-07-19T10:24:33.196Z,1008.86
2018-07-19T10:25:33.268Z,1008.86
2018-07-19T10:26:33.389Z,1008.86
2018-07-19T10:27:33.411Z,1008.80
2018-07-19T10:28:33.519Z,1008.80
2018-07-19T10:29:33.597Z,1008.83
2018-07-19T10:30:33.628Z,1008.86
2018-07-19T10:31:33.697Z,1008.82
2018-07-19T10:32:33.847Z,1008.80
2018-07-19T10:33:33.842Z,1008.82
2018-07-19T10:34:33.917Z,1008.83
2018-07-19T10:35:33.991Z,1008.79
2018-07-19T10:36:34.062Z,1008.80
2018-07-19T10:37:34.156Z,1008.81
2018-07-19T10:38:34.210Z,1008.05
2018-07-19T10:39:34.368Z,1007.99
2018-07-19T10:40:34.365Z,1007.99
2018-07-19T10:41:34.433Z,1007.98
2018-07-19T10:42:34.508Z,1008.11
2018-07-19T10:43:34.580Z,1008.33
2018-07-19T10:44:34.655Z,1008.81
2018-07-19T10:45:34.729Z,1008.82
2018-07-19T10:46:34.801Z,1008.82
2018-07-19T10:47:34.876Z,1008.88
2018-07-19T10:48:34.951Z,1008.80
2018-07-19T10:49:35.022Z,1008.78
2018-07-19T10:50:35.095Z,1008.81
2018-07-19T10:51:35.605Z,1008.85
2018-07-19T10:52:35.243Z,1008.84
2018-07-19T10:53:35.316Z,1008.88
2018-07-19T10:54:35.390Z,1008.85
2018-07-19T10:55:35.466Z,1008.38
2018-07-19T10:56:35.538Z,1008.81
2018-07-19T10:57:35.613Z,1008.81
2018-07-19T10:58:35.687Z,1008.88
2018-07-19T10:59:35.765Z,1008.86
2018-07-19T11:00:35.835Z,1008.86
2018-07-19T11:01:35.909Z,1008.80
2018-07-19T11:02:35.984Z,1008.75
2018-07-19T11:03:36.061Z,1008.80
2018-07-19T11:04:36.133Z,1008.06
2018-07-19T11:08:36.431Z,1008.77
2018-07-19T11:09:36.540Z,1008.78
2018-07-19T11:10:36.581Z,1008.73
2018-07-19T11:11:36.654Z,1008.18
2018-07-19T11:12:36.736Z,1008.70
2018-07-19T11:13:36.800Z,1008.56
2018-07-19T11:14:36.875Z,1008.61
2018-07-19T11:15:36.948Z,1008.68
2018-07-19T11:16:37.021Z,1008.73
2018-07-19T11:17:37.095Z,1008.70
2018-07-19T11:18:37.168Z,1008.69
2018-07-19T11:19:37.243Z,1008.71
2018-07-19T11:20:37.315Z,1008.68
2018-07-19T11:21:37.388Z,1008.64
2018-07-19T11:22:37.473Z,1008.66
2018-07-19T11:23:37.538Z,1008.62
2018-07-19T11:24:37.609Z,1008.65
2018-07-19T11:25:37.685Z,1008.62
2018-07-19T11:26:37.760Z,1008.62
2018-07-19T11:27:37.834Z,1008.53
2018-07-19T11:28:37.908Z,1008.00
2018-07-19T11:29:37.983Z,1007.91
2018-07-19T11:30:38.058Z,1007.86
2018-07-19T11:31:38.132Z,1008.15
2018-07-19T11:32:38.205Z,1008.52
2018-07-19T11:33:38.280Z,1008.59
2018-07-19T11:34:38.354Z,1008.53
2018-07-19T11:35:38.429Z,1008.53
2018-07-19T11:36:38.502Z,1007.93
2018-07-19T11:37:38.577Z,1008.34
2018-07-19T11:38:38.650Z,1008.47
2018-07-19T11:39:38.726Z,1008.41
2018-07-19T11:40:38.799Z,1008.38
2018-07-19T11:41:38.916Z,1008.40
2018-07-19T11:42:38.949Z,1008.34
2018-07-19T11:43:39.023Z,1008.37
2018-07-19T11:44:39.098Z,1008.43
2018-07-19T11:45:39.171Z,1008.49
2018-07-19T11:46:39.245Z,1008.53
2018-07-19T11:47:39.320Z,1008.58
2018-07-19T11:48:39.393Z,1008.58
2018-07-19T11:49:39.468Z,1008.63
2018-07-19T11:50:39.544Z,1008.75
2018-07-19T11:51:39.768Z,1008.86
2018-07-19T11:52:39.692Z,1008.95
2018-07-19T11:53:39.767Z,1009.13
2018-07-19T11:54:39.842Z,1009.22
2018-07-19T11:55:39.920Z,1009.39
2018-07-19T11:56:39.992Z,1009.51
2018-07-19T11:57:40.068Z,1009.64
2018-07-19T11:58:40.144Z,1009.74
2018-07-19T11:59:40.221Z,1009.86
2018-07-19T12:00:40.295Z,1009.87
2018-07-19T12:01:40.404Z,1009.81
2018-07-19T12:02:40.446Z,1009.73
2018-07-19T12:03:40.527Z,1009.70
2018-07-19T12:04:40.601Z,1009.62
2018-07-19T12:05:40.674Z,1009.60
2018-07-19T12:06:40.760Z,1009.56
2018-07-19T12:07:40.827Z,1009.61
2018-07-19T12:08:40.904Z,1009.56
2018-07-19T12:09:40.981Z,1009.48
2018-07-19T12:10:41.055Z,1009.39